Time;durP1;ratioP1;P1;durP2;ratioP2;P2;SDS_P1;SDS_P2;PMS_P1;PMS_P2;Temp;Humidity;BMP_temperature;BMP_pressure;BME280_temperature;BME280_humidity;BME280_pressure;Samples;Min_cycle;Max_cycle;Signal;HPM_P1;HPM_P2
2021/08/15 00:01:06;;;;;;;20.77;19.20;;;25.40;99.90;;;;;;2610215;54;20409;-58
2021/08/15 00:03:35;;;;;;;21.23;19.63;;;25.30;99.90;;;;;;2609900;47;20431;-59
2021/08/15 00:06:07;;;;;;;21.73;19.90;;;25.30;99.90;;;;;;2611795;54;20398;-58
2021/08/15 00:08:37;;;;;;;20.07;18.47;;;25.30;99.90;;;;;;2609405;54;20397;-59
2021/08/15 00:11:07;;;;;;;20.97;19.27;;;25.40;99.90;;;;;;2610349;54;20371;-60
2021/08/15 00:13:36;;;;;;;20.63;19.00;;;25.40;99.90;;;;;;2612059;39;20960;-59
2021/08/15 00:16:06;;;;;;;21.23;19.43;;;25.40;99.90;;;;;;2612121;39;20764;-60
2021/08/15 00:18:37;;;;;;;19.50;18.10;;;25.40;99.90;;;;;;2612266;39;21081;-59
2021/08/15 00:21:08;;;;;;;20.90;19.33;;;25.30;99.90;;;;;;2611977;54;20431;-59
2021/08/15 00:23:38;;;;;;;20.20;18.73;;;25.40;99.90;;;;;;2612475;54;20414;-60
2021/08/15 00:26:07;;;;;;;21.13;19.33;;;25.40;99.90;;;;;;2613339;54;20399;-59
2021/08/15 00:28:36;;;;;;;19.53;18.13;;;25.40;99.90;;;;;;2612825;54;20399;-60
2021/08/15 00:31:05;;;;;;;20.53;18.83;;;25.40;99.90;;;;;;2613946;39;20768;-59
2021/08/15 00:33:36;;;;;;;20.20;18.40;;;25.40;99.90;;;;;;2611546;54;20414;-60
2021/08/15 00:36:08;;;;;;;20.40;18.90;;;25.40;99.90;;;;;;2613093;47;20406;-60
2021/08/15 00:38:37;;;;;;;20.10;18.50;;;25.40;99.90;;;;;;2613791;54;20418;-59
2021/08/15 00:41:06;;;;;;;20.70;19.20;;;25.40;99.90;;;;;;2612922;52;20414;-59
2021/08/15 00:43:35;;;;;;;21.20;19.60;;;25.40;99.90;;;;;;2613245;31;20876;-59
2021/08/15 00:46:09;;;;;;;20.30;18.80;;;25.30;99.90;;;;;;2613027;54;20414;-59
2021/08/15 00:48:39;;;;;;;20.10;18.60;;;25.40;99.90;;;;;;2613579;47;20391;-59
2021/08/15 00:51:11;;;;;;;20.07;18.67;;;25.40;99.90;;;;;;2612649;54;20908;-58
2021/08/15 00:53:41;;;;;;;20.50;19.00;;;25.40;99.90;;;;;;2612527;39;20805;-59
2021/08/15 00:56:12;;;;;;;19.13;17.83;;;25.30;99.90;;;;;;2612694;54;20409;-59
2021/08/15 00:58:42;;;;;;;19.13;17.63;;;25.40;99.90;;;;;;2612228;54;20401;-58
2021/08/15 01:01:12;;;;;;;19.03;17.63;;;25.40;99.90;;;;;;2612649;54;20417;-59
2021/08/15 01:03:42;;;;;;;20.10;18.40;;;25.40;99.90;;;;;;2612060;54;20394;-59
2021/08/15 01:06:14;;;;;;;19.70;18.20;;;25.40;99.90;;;;;;2613306;54;20407;-59
2021/08/15 01:08:43;;;;;;;20.23;18.80;;;25.30;99.90;;;;;;2612425;54;20403;-59
2021/08/15 01:11:13;;;;;;;19.07;17.67;;;25.40;99.90;;;;;;2612299;54;21203;-59
2021/08/15 01:13:43;;;;;;;18.57;17.27;;;25.40;99.90;;;;;;2611232;54;20399;-59
2021/08/15 01:16:12;;;;;;;19.17;17.67;;;25.40;99.90;;;;;;2612377;47;20422;-59
2021/08/15 01:18:41;;;;;;;19.53;18.03;;;25.40;99.90;;;;;;2613026;54;20412;-59
2021/08/15 01:21:15;;;;;;;19.80;18.20;;;25.40;99.90;;;;;;2611559;54;20435;-58
2021/08/15 01:23:47;;;;;;;18.70;17.30;;;25.40;99.90;;;;;;2612180;54;20535;-58
2021/08/15 01:26:18;;;;;;;18.80;17.37;;;25.30;99.90;;;;;;2613759;39;20687;-58
2021/08/15 01:28:51;;;;;;;18.77;17.37;;;25.40;99.90;;;;;;2612927;54;20387;-58
2021/08/15 01:31:20;;;;;;;19.40;17.90;;;25.40;99.90;;;;;;2611982;54;20402;-60
2021/08/15 01:33:50;;;;;;;20.10;18.50;;;25.40;99.90;;;;;;2612099;54;20402;-58
2021/08/15 01:36:21;;;;;;;20.90;18.97;;;25.40;99.90;;;;;;2612617;54;20417;-60
2021/08/15 01:38:52;;;;;;;21.00;19.10;;;25.40;99.90;;;;;;2611883;54;20963;-60
2021/08/15 01:41:21;;;;;;;19.77;18.17;;;25.40;99.90;;;;;;2612129;54;20423;-59
2021/08/15 01:43:55;;;;;;;18.80;17.50;;;25.30;99.90;;;;;;2612850;54;20430;-59
2021/08/15 01:46:27;;;;;;;20.20;18.80;;;25.30;99.90;;;;;;2612251;54;20498;-60
2021/08/15 01:48:56;;;;;;;18.80;17.50;;;25.40;99.90;;;;;;2611537;47;20411;-59
2021/08/15 01:51:26;;;;;;;20.63;18.93;;;25.40;99.90;;;;;;2612867;54;20421;-58
2021/08/15 01:54:00;;;;;;;19.27;17.80;;;25.40;99.90;;;;;;2612076;54;20390;-59
2021/08/15 01:56:29;;;;;;;20.00;18.53;;;25.40;99.90;;;;;;2612995;54;20434;-59
2021/08/15 01:59:00;;;;;;;20.50;18.90;;;25.40;99.90;;;;;;2613215;54;20399;-59
2021/08/15 02:01:30;;;;;;;20.00;18.50;;;25.40;99.90;;;;;;2612967;54;20533;-59
2021/08/15 02:03:59;;;;;;;19.83;18.33;;;25.40;99.90;;;;;;2612607;39;20779;-59
2021/08/15 02:06:28;;;;;;;18.60;17.30;;;25.40;99.90;;;;;;2612779;54;20399;-59
2021/08/15 02:08:58;;;;;;;18.57;17.17;;;25.40;99.90;;;;;;2612476;54;20394;-59
2021/08/15 02:11:27;;;;;;;20.10;18.57;;;25.40;99.90;;;;;;2612327;51;20435;-59
2021/08/15 02:13:57;;;;;;;19.67;18.20;;;25.40;99.90;;;;;;2612095;54;20394;-59
2021/08/15 02:16:29;;;;;;;19.03;17.70;;;25.40;99.90;;;;;;2612405;54;20963;-58
2021/08/15 02:18:58;;;;;;;19.50;18.00;;;25.30;99.90;;;;;;2611643;54;20410;-60
2021/08/15 02:21:27;;;;;;;19.47;18.17;;;25.30;99.90;;;;;;2609912;48;20912;-59
2021/08/15 02:23:56;;;;;;;20.00;18.50;;;25.40;99.90;;;;;;2608339;54;20454;-59
2021/08/15 02:26:25;;;;;;;20.03;18.70;;;25.40;99.90;;;;;;2612230;54;20425;-59
2021/08/15 02:28:54;;;;;;;19.80;18.40;;;25.40;99.90;;;;;;2611830;54;20453;-59
2021/08/15 02:31:24;;;;;;;20.17;18.57;;;25.40;99.90;;;;;;2612589;54;20383;-59
2021/08/15 02:33:55;;;;;;;20.03;18.60;;;25.30;99.90;;;;;;2612511;54;20915;-59
2021/08/15 02:36:26;;;;;;;20.87;19.10;;;25.30;99.90;;;;;;2612044;54;20557;-59
2021/08/15 02:38:55;;;;;;;19.43;17.93;;;25.40;99.90;;;;;;2611825;54;20476;-59
2021/08/15 02:41:24;;;;;;;19.30;17.90;;;25.40;99.90;;;;;;2613374;54;20407;-60
2021/08/15 02:43:53;;;;;;;19.57;18.13;;;25.40;99.90;;;;;;2612184;39;20723;-60
2021/08/15 02:46:22;;;;;;;20.83;19.00;;;25.40;99.90;;;;;;2612474;54;20588;-58
2021/08/15 02:48:51;;;;;;;19.10;17.70;;;25.40;99.90;;;;;;2612340;54;20402;-59
2021/08/15 02:51:23;;;;;;;20.03;18.60;;;25.40;99.90;;;;;;2612270;47;20417;-60
2021/08/15 02:53:52;;;;;;;19.57;17.93;;;25.40;99.90;;;;;;2612259;54;20406;-59
2021/08/15 02:56:21;;;;;;;17.93;16.63;;;25.40;99.90;;;;;;2612065;51;20447;-60
2021/08/15 02:58:50;;;;;;;19.33;17.57;;;25.30;99.90;;;;;;2612660;54;20423;-60
2021/08/15 03:01:20;;;;;;;19.17;17.50;;;25.30;99.90;;;;;;2611548;54;20923;-59
2021/08/15 03:03:49;;;;;;;19.23;17.73;;;25.30;99.90;;;;;;2613296;39;21202;-60
2021/08/15 03:06:18;;;;;;;18.67;17.23;;;25.40;99.90;;;;;;2612864;54;20406;-58
2021/08/15 03:08:50;;;;;;;19.60;18.20;;;25.40;99.90;;;;;;2612060;54;20422;-60
2021/08/15 03:11:19;;;;;;;20.60;18.90;;;25.30;99.90;;;;;;2612001;54;20406;-58
2021/08/15 03:13:48;;;;;;;20.07;18.37;;;25.40;99.90;;;;;;2612719;54;20433;-58
2021/08/15 03:16:17;;;;;;;19.93;18.43;;;25.30;99.90;;;;;;2612797;54;20438;-59
2021/08/15 03:18:46;;;;;;;19.17;17.33;;;25.30;99.90;;;;;;2611946;51;20407;-59
2021/08/15 03:21:15;;;;;;;19.30;17.70;;;25.30;99.90;;;;;;2611588;54;20409;-59
2021/08/15 03:23:45;;;;;;;19.63;18.13;;;25.30;99.90;;;;;;2612754;54;20404;-59
2021/08/15 03:26:16;;;;;;;19.83;17.97;;;25.30;99.90;;;;;;2612745;54;20390;-60
2021/08/15 03:28:45;;;;;;;20.50;19.10;;;25.40;99.90;;;;;;2612310;54;20442;-59
2021/08/15 03:31:15;;;;;;;19.20;17.87;;;25.40;99.90;;;;;;2612877;54;20399;-60
2021/08/15 03:33:44;;;;;;;19.03;17.53;;;25.30;99.90;;;;;;2612000;54;20399;-59
2021/08/15 03:36:13;;;;;;;19.37;17.97;;;25.30;99.90;;;;;;2612302;54;20410;-58
2021/08/15 03:38:42;;;;;;;19.80;18.50;;;25.30;99.90;;;;;;2612853;39;20694;-60
2021/08/15 03:41:12;;;;;;;20.20;18.70;;;25.30;99.90;;;;;;2613448;39;21020;-60
2021/08/15 03:43:43;;;;;;;20.30;18.80;;;25.30;99.90;;;;;;2612213;54;20382;-59
2021/08/15 03:46:12;;;;;;;20.40;18.63;;;25.30;99.90;;;;;;2612835;54;20402;-58
2021/08/15 03:48:41;;;;;;;20.30;18.90;;;25.30;99.90;;;;;;2612068;54;20437;-59
2021/08/15 03:51:11;;;;;;;19.77;18.47;;;25.30;99.90;;;;;;2612066;54;20398;-60
2021/08/15 03:53:40;;;;;;;20.20;18.70;;;25.30;99.90;;;;;;2611396;54;20399;-59
2021/08/15 03:56:09;;;;;;;20.13;18.63;;;25.30;99.90;;;;;;2612117;54;20413;-59
2021/08/15 03:58:38;;;;;;;19.63;18.20;;;25.30;99.90;;;;;;2611641;54;20391;-59
2021/08/15 04:01:10;;;;;;;19.73;18.23;;;25.30;99.90;;;;;;2611325;54;20398;-59
2021/08/15 04:03:39;;;;;;;19.63;18.07;;;25.30;99.90;;;;;;2611844;54;20418;-59
2021/08/15 04:06:09;;;;;;;19.40;17.90;;;25.30;99.90;;;;;;2612053;39;21227;-59
2021/08/15 04:08:39;;;;;;;20.47;18.87;;;25.30;99.90;;;;;;2610630;54;20906;-59
2021/08/15 04:11:08;;;;;;;19.40;17.90;;;25.30;99.90;;;;;;2611908;39;21012;-59
2021/08/15 04:13:37;;;;;;;18.10;16.80;;;25.30;99.90;;;;;;2612529;54;20402;-59
2021/08/15 04:16:09;;;;;;;21.20;19.70;;;25.30;99.90;;;;;;2611920;54;20391;-60
2021/08/15 04:18:38;;;;;;;21.13;18.90;;;25.30;99.90;;;;;;2611740;54;20979;-59
2021/08/15 04:21:07;;;;;;;19.00;17.80;;;25.30;99.90;;;;;;2611008;54;20403;-60
2021/08/15 04:23:37;;;;;;;20.27;18.50;;;25.30;99.90;;;;;;2611929;54;20481;-60
2021/08/15 04:26:06;;;;;;;20.53;19.07;;;25.30;99.90;;;;;;2609993;54;21261;-59
2021/08/15 04:28:35;;;;;;;18.83;17.43;;;25.30;99.90;;;;;;2610772;54;20537;-59
2021/08/15 04:31:05;;;;;;;19.67;18.27;;;25.30;99.90;;;;;;2611310;54;20423;-59
2021/08/15 04:33:36;;;;;;;20.87;19.27;;;25.30;99.90;;;;;;2610374;54;20367;-60
2021/08/15 04:36:06;;;;;;;19.97;18.40;;;25.30;99.90;;;;;;2610212;54;20397;-59
2021/08/15 04:38:35;;;;;;;19.30;17.93;;;25.30;99.90;;;;;;2610787;54;20430;-60
2021/08/15 04:41:05;;;;;;;18.57;17.30;;;25.30;99.90;;;;;;2610541;54;20930;-60
2021/08/15 04:43:34;;;;;;;20.27;18.67;;;25.30;99.90;;;;;;2610747;54;20410;-59
2021/08/15 04:46:04;;;;;;;19.10;17.60;;;25.30;99.90;;;;;;2610352;54;20467;-59
2021/08/15 04:48:35;;;;;;;20.07;18.37;;;25.30;99.90;;;;;;2610311;54;21232;-59
2021/08/15 04:51:05;;;;;;;19.47;18.07;;;25.30;99.90;;;;;;2611248;54;20403;-59
2021/08/15 04:53:34;;;;;;;18.97;17.67;;;25.30;99.90;;;;;;2610814;54;20445;-59
2021/08/15 04:56:03;;;;;;;19.67;18.10;;;25.30;99.90;;;;;;2610842;47;21253;-59
2021/08/15 04:58:32;;;;;;;20.00;18.50;;;25.30;99.90;;;;;;2609650;47;20505;-60
2021/08/15 05:01:02;;;;;;;19.50;18.00;;;25.30;99.90;;;;;;2610955;54;20429;-59
2021/08/15 05:03:31;;;;;;;19.10;17.70;;;25.30;99.90;;;;;;2611834;54;20888;-59
2021/08/15 05:06:04;;;;;;;19.90;18.50;;;25.30;99.90;;;;;;2612389;54;20441;-59
2021/08/15 05:08:33;;;;;;;19.10;17.70;;;25.30;99.90;;;;;;2610996;54;20422;-59
2021/08/15 05:11:03;;;;;;;20.10;18.60;;;25.30;99.90;;;;;;2610433;54;20573;-59
2021/08/15 05:13:32;;;;;;;18.90;17.40;;;25.30;99.90;;;;;;2610692;54;20393;-59
2021/08/15 05:16:01;;;;;;;20.10;18.40;;;25.30;99.90;;;;;;2612031;54;20866;-60
2021/08/15 05:18:31;;;;;;;20.30;18.47;;;25.30;99.90;;;;;;2612121;54;20459;-59
2021/08/15 05:21:03;;;;;;;20.60;18.27;;;25.30;99.90;;;;;;2611274;54;20402;-59
2021/08/15 05:23:32;;;;;;;19.73;17.70;;;25.30;99.90;;;;;;2610517;54;20459;-59
2021/08/15 05:26:01;;;;;;;21.57;19.57;;;25.30;99.90;;;;;;2610903;54;21237;-58
2021/08/15 05:28:31;;;;;;;19.93;18.10;;;25.30;99.90;;;;;;2610915;54;20510;-60
2021/08/15 05:31:00;;;;;;;18.00;16.70;;;25.30;99.90;;;;;;2611366;39;21157;-60
2021/08/15 05:33:29;;;;;;;18.93;17.33;;;25.30;99.90;;;;;;2610598;54;20406;-60
2021/08/15 05:35:59;;;;;;;18.63;17.23;;;25.30;99.90;;;;;;2609204;54;20423;-60
2021/08/15 05:38:30;;;;;;;18.17;16.87;;;25.30;99.90;;;;;;2611286;54;20429;-59
2021/08/15 05:40:59;;;;;;;19.90;18.10;;;25.30;99.90;;;;;;2610481;54;20494;-60
2021/08/15 05:43:28;;;;;;;19.50;17.90;;;25.30;99.90;;;;;;2611618;54;20399;-59
2021/08/15 05:45:57;;;;;;;18.63;17.13;;;25.30;99.90;;;;;;2611331;54;20491;-59
2021/08/15 05:48:27;;;;;;;18.80;17.43;;;25.30;99.90;;;;;;2610676;54;20526;-59
2021/08/15 05:50:56;;;;;;;18.13;16.73;;;25.30;99.90;;;;;;2608183;54;20401;-59
2021/08/15 05:53:25;;;;;;;18.23;16.43;;;25.30;99.90;;;;;;2609951;54;20430;-59
2021/08/15 05:55:56;;;;;;;18.93;17.63;;;25.30;99.90;;;;;;2608517;54;20428;-59
2021/08/15 05:58:26;;;;;;;19.00;17.63;;;25.30;99.90;;;;;;2610142;39;20915;-59
2021/08/15 06:00:55;;;;;;;20.20;18.70;;;25.30;99.90;;;;;;2608726;54;20439;-59
2021/08/15 06:03:24;;;;;;;19.87;18.40;;;25.30;99.90;;;;;;2606341;54;20432;-60
2021/08/15 06:05:53;;;;;;;19.90;18.50;;;25.30;99.90;;;;;;2608202;54;20382;-60
2021/08/15 06:08:22;;;;;;;19.17;17.77;;;25.30;99.90;;;;;;2608742;54;20442;-59
2021/08/15 06:10:51;;;;;;;19.93;18.23;;;25.30;99.90;;;;;;2608553;54;20896;-60
2021/08/15 06:13:23;;;;;;;20.00;18.60;;;25.30;99.90;;;;;;2609497;54;20407;-59
2021/08/15 06:15:52;;;;;;;20.43;18.60;;;25.30;99.90;;;;;;2610011;54;20442;-59
2021/08/15 06:18:21;;;;;;;19.73;18.33;;;25.30;99.90;;;;;;2609564;54;20553;-58
2021/08/15 06:20:50;;;;;;;20.70;19.10;;;25.30;99.90;;;;;;2609834;47;20399;-59
2021/08/15 06:23:20;;;;;;;19.83;18.43;;;25.30;99.90;;;;;;2609113;39;21102;-59
2021/08/15 06:25:49;;;;;;;20.37;18.77;;;25.40;99.90;;;;;;2608399;54;20887;-59
2021/08/15 06:28:18;;;;;;;19.97;18.47;;;25.30;99.90;;;;;;2608410;54;20423;-59
2021/08/15 06:30:50;;;;;;;18.63;17.40;;;25.30;99.90;;;;;;2609186;54;20433;-60
2021/08/15 06:33:19;;;;;;;19.73;18.20;;;25.00;99.90;;;;;;2608861;54;20529;-60
2021/08/15 06:35:48;;;;;;;19.13;17.53;;;24.80;99.90;;;;;;2608169;54;20453;-59
2021/08/15 06:38:17;;;;;;;19.10;17.80;;;24.60;99.90;;;;;;2609755;54;20567;-59
2021/08/15 06:40:46;;;;;;;18.50;17.13;;;24.60;99.90;;;;;;2608426;54;20383;-58
2021/08/15 06:43:15;;;;;;;18.47;17.17;;;24.50;99.90;;;;;;2609197;39;21067;-60
2021/08/15 06:45:49;;;;;;;19.90;18.47;;;24.40;99.90;;;;;;2605338;54;20411;-59
2021/08/15 06:48:18;;;;;;;17.63;16.13;;;24.30;99.90;;;;;;2608916;47;20436;-58
2021/08/15 06:50:47;;;;;;;18.93;17.33;;;24.30;99.90;;;;;;2607264;54;20371;-60
2021/08/15 06:53:16;;;;;;;18.17;16.70;;;24.40;99.90;;;;;;2608066;54;20537;-59
2021/08/15 06:55:46;;;;;;;18.37;16.93;;;24.40;99.90;;;;;;2607651;47;20427;-59
2021/08/15 06:58:15;;;;;;;19.30;17.90;;;24.40;99.90;;;;;;2607455;39;20743;-58
2021/08/15 07:00:44;;;;;;;18.37;16.97;;;24.50;99.90;;;;;;2608231;47;20399;-60
2021/08/15 07:03:16;;;;;;;19.10;17.67;;;24.50;99.90;;;;;;2609035;54;20480;-58
2021/08/15 07:05:45;;;;;;;18.37;17.07;;;24.60;99.90;;;;;;2609033;54;20398;-59
2021/08/15 07:08:14;;;;;;;18.10;16.70;;;24.60;99.90;;;;;;2607898;39;20999;-59
2021/08/15 07:10:44;;;;;;;18.83;17.20;;;24.70;99.90;;;;;;2609045;54;20411;-58
2021/08/15 07:13:13;;;;;;;19.30;17.90;;;24.70;99.90;;;;;;2609238;54;20410;-57
2021/08/15 07:15:42;;;;;;;18.43;17.03;;;24.70;99.90;;;;;;2609280;54;20442;-58
2021/08/15 07:18:12;;;;;;;19.90;18.30;;;24.80;99.90;;;;;;2607587;54;20494;-59
2021/08/15 07:20:44;;;;;;;19.23;17.73;;;24.80;99.90;;;;;;2608307;54;20367;-58
2021/08/15 07:23:14;;;;;;;18.63;17.20;;;24.80;99.90;;;;;;2610364;39;20810;-58
2021/08/15 07:25:43;;;;;;;18.27;16.70;;;24.80;99.90;;;;;;2609079;54;20423;-58
2021/08/15 07:28:12;;;;;;;20.60;19.00;;;24.90;99.90;;;;;;2607746;54;20414;-59
2021/08/15 07:30:41;;;;;;;18.73;17.00;;;25.00;99.90;;;;;;2605874;54;20370;-57
2021/08/15 07:33:11;;;;;;;18.57;17.27;;;25.10;99.90;;;;;;2607833;54;20457;-59
2021/08/15 07:35:43;;;;;;;18.93;17.53;;;25.10;99.90;;;;;;2608000;54;20581;-57
2021/08/15 07:38:12;;;;;;;21.43;19.67;;;25.20;99.90;;;;;;2608597;54;20410;-58
2021/08/15 07:40:41;;;;;;;20.60;18.80;;;25.20;99.90;;;;;;2607771;39;21113;-59
2021/08/15 07:43:10;;;;;;;19.90;18.10;;;25.30;99.90;;;;;;2605333;54;20383;-58
2021/08/15 07:45:40;;;;;;;19.63;18.07;;;25.30;99.90;;;;;;2605664;54;20418;-59
2021/08/15 07:48:10;;;;;;;20.50;18.97;;;25.30;99.90;;;;;;2607055;54;20410;-60
2021/08/15 07:50:39;;;;;;;18.97;17.53;;;25.40;99.90;;;;;;2607517;54;20417;-58
2021/08/15 07:53:25;;;;;;;19.67;18.07;;;25.40;99.90;;;;;;2609689;39;20821;-58
2021/08/15 07:55:56;;;;;;;19.40;17.80;;;25.40;99.90;;;;;;2608960;54;20420;-59
2021/08/15 07:58:26;;;;;;;20.17;18.67;;;25.40;99.90;;;;;;2607914;54;20414;-60
2021/08/15 08:00:58;;;;;;;19.90;18.23;;;25.40;99.90;;;;;;2605250;54;20410;-59
2021/08/15 08:03:27;;;;;;;19.20;17.70;;;25.40;99.90;;;;;;2609029;54;20436;-58
2021/08/15 08:05:57;;;;;;;20.93;19.07;;;25.40;99.90;;;;;;2607806;54;20414;-59
2021/08/15 08:08:29;;;;;;;19.27;17.87;;;25.40;99.90;;;;;;2607311;54;20460;-59
2021/08/15 08:10:58;;;;;;;20.13;18.33;;;25.50;99.90;;;;;;2607071;54;20395;-58
2021/08/15 08:13:29;;;;;;;19.40;17.83;;;25.50;99.90;;;;;;2606315;54;20383;-59
2021/08/15 08:15:58;;;;;;;21.23;19.53;;;25.50;99.90;;;;;;2607075;54;20453;-58
2021/08/15 08:18:27;;;;;;;21.87;19.93;;;25.50;99.90;;;;;;2606640;54;20510;-59
2021/08/15 08:20:56;;;;;;;21.80;19.97;;;25.50;99.90;;;;;;2606880;54;20395;-59
2021/08/15 08:23:28;;;;;;;21.23;19.63;;;25.50;99.90;;;;;;2609051;54;20426;-59
2021/08/15 08:25:57;;;;;;;23.10;21.30;;;25.50;99.90;;;;;;2608947;54;20456;-59
2021/08/15 08:28:28;;;;;;;24.33;22.43;;;25.50;99.90;;;;;;2609617;54;20542;-59
2021/08/15 08:30:58;;;;;;;22.00;20.30;;;25.50;99.90;;;;;;2607503;54;20428;-59
2021/08/15 08:33:30;;;;;;;23.90;21.87;;;25.50;99.90;;;;;;2608526;54;20927;-59
2021/08/15 08:36:00;;;;;;;23.87;21.97;;;25.50;99.90;;;;;;2607770;54;20378;-59
2021/08/15 08:38:32;;;;;;;27.03;24.90;;;25.50;99.90;;;;;;2606125;54;20513;-59
2021/08/15 08:41:02;;;;;;;25.50;23.47;;;25.50;99.90;;;;;;2607732;54;20406;-59
2021/08/15 08:43:33;;;;;;;25.10;23.00;;;25.50;99.90;;;;;;2604691;54;20414;-58
2021/08/15 08:46:02;;;;;;;26.90;24.63;;;25.50;99.90;;;;;;2604725;39;20837;-58
2021/08/15 08:48:32;;;;;;;25.53;23.63;;;25.50;99.90;;;;;;2606020;39;20789;-59
2021/08/15 08:51:01;;;;;;;24.70;22.83;;;25.50;99.90;;;;;;2606410;54;20399;-58
2021/08/15 08:53:35;;;;;;;23.00;21.30;;;25.50;99.90;;;;;;2606295;54;20459;-58
2021/08/15 08:56:05;;;;;;;26.77;24.60;;;25.50;99.90;;;;;;2605641;47;20417;-59
2021/08/15 08:58:35;;;;;;;25.47;23.47;;;25.50;99.90;;;;;;2605975;54;20441;-58
2021/08/15 09:01:04;;;;;;;23.90;22.00;;;25.50;99.90;;;;;;2605048;54;20582;-59
2021/08/15 09:03:33;;;;;;;24.30;22.40;;;25.50;99.90;;;;;;2606196;54;20400;-58
2021/08/15 09:06:03;;;;;;;23.40;21.60;;;25.50;99.90;;;;;;2608116;54;20442;-59
2021/08/15 09:08:36;;;;;;;22.90;21.10;;;25.50;99.90;;;;;;2608685;39;20693;-58
2021/08/15 09:11:16;;;;;;;25.13;23.00;;;25.50;99.90;;;;;;2606926;39;21198;-58
2021/08/15 09:13:46;;;;;;;25.30;23.30;;;25.50;99.90;;;;;;2609152;54;20394;-59
2021/08/15 09:16:15;;;;;;;23.40;21.53;;;25.50;99.90;;;;;;2608297;39;20755;-59
2021/08/15 09:18:44;;;;;;;23.70;21.80;;;25.50;99.90;;;;;;2607900;54;20431;-59
2021/08/15 09:21:14;;;;;;;24.80;22.60;;;25.50;99.90;;;;;;2605409;39;20810;-59
2021/08/15 09:23:46;;;;;;;21.90;20.13;;;25.50;99.90;;;;;;2607030;54;20437;-58
2021/08/15 09:26:17;;;;;;;23.67;21.53;;;25.50;99.90;;;;;;2607201;54;20465;-58
2021/08/15 09:28:48;;;;;;;23.40;21.50;;;25.50;99.90;;;;;;2608360;54;20411;-58
2021/08/15 09:31:23;;;;;;;22.33;20.53;;;25.50;99.90;;;;;;2606464;54;20378;-58
2021/08/15 09:33:53;;;;;;;23.13;21.33;;;25.50;99.90;;;;;;2607087;54;20428;-58
2021/08/15 09:36:30;;;;;;;23.43;21.57;;;25.50;99.90;;;;;;2605209;54;20389;-59
2021/08/15 09:39:04;;;;;;;24.77;22.83;;;25.50;99.90;;;;;;2606246;54;20418;-58
2021/08/15 09:41:35;;;;;;;23.83;21.87;;;25.50;99.90;;;;;;2605545;54;20513;-59
2021/08/15 09:44:25;;;;;;;23.70;21.60;;;25.50;99.90;;;;;;2603286;54;20521;-58
2021/08/15 09:47:09;;;;;;;22.43;20.70;;;25.50;99.90;;;;;;2604437;54;20387;-59
2021/08/15 09:49:43;;;;;;;23.57;21.53;;;25.50;99.90;;;;;;2605419;54;20521;-58
2021/08/15 09:52:14;;;;;;;22.70;20.97;;;25.50;99.90;;;;;;2604610;54;20402;-58
2021/08/15 09:54:56;;;;;;;22.40;20.60;;;25.50;99.90;;;;;;2605127;54;21038;-59
2021/08/15 09:57:33;;;;;;;23.40;21.53;;;25.50;99.90;;;;;;2608468;54;20423;-59
2021/08/15 10:00:03;;;;;;;23.53;21.63;;;25.50;99.90;;;;;;2608073;51;20469;-59
2021/08/15 10:02:53;;;;;;;24.47;22.53;;;25.50;99.90;;;;;;2604369;54;20438;-58
2021/08/15 10:05:22;;;;;;;22.63;20.83;;;25.50;99.90;;;;;;2607025;39;20995;-58
2021/08/15 10:07:53;;;;;;;22.73;21.07;;;25.50;99.90;;;;;;2607670;54;20445;-59
2021/08/15 10:10:39;;;;;;;22.60;20.70;;;25.50;99.90;;;;;;2607301;54;20406;-59
2021/08/15 10:13:10;;;;;;;23.57;21.70;;;25.50;99.90;;;;;;2607767;54;20447;-59
2021/08/15 10:15:41;;;;;;;22.90;21.17;;;25.50;99.90;;;;;;2604923;54;20422;-58
2021/08/15 10:18:16;;;;;;;23.67;21.67;;;25.50;99.90;;;;;;2605632;47;21072;-59
2021/08/15 10:20:45;;;;;;;23.73;21.30;;;25.50;99.90;;;;;;2603820;54;20418;-58
2021/08/15 10:23:15;;;;;;;23.87;21.80;;;25.50;99.90;;;;;;2605845;39;20802;-58
2021/08/15 10:25:47;;;;;;;23.50;21.43;;;25.50;99.90;;;;;;2608288;54;20410;-59
2021/08/15 10:28:41;;;;;;;24.03;21.83;;;25.50;99.90;;;;;;2606692;39;21057;-59
2021/08/15 10:31:10;;;;;;;23.83;21.73;;;25.50;99.90;;;;;;2607104;54;20359;-58
2021/08/15 10:33:55;;;;;;;22.10;20.50;;;25.50;99.90;;;;;;2606182;54;20498;-58
2021/08/15 10:36:27;;;;;;;22.87;21.17;;;25.50;99.90;;;;;;2605941;54;20450;-59
2021/08/15 10:38:59;;;;;;;23.73;21.80;;;25.50;99.90;;;;;;2610023;54;20428;-60
2021/08/15 10:41:52;;;;;;;22.83;21.00;;;25.50;99.90;;;;;;2608043;47;20375;-60
2021/08/15 10:44:23;;;;;;;23.53;21.67;;;25.50;99.90;;;;;;2608430;54;20440;-60
2021/08/15 10:47:17;;;;;;;22.47;20.60;;;25.50;99.90;;;;;;2608907;54;20421;-60
2021/08/15 10:50:02;;;;;;;22.87;20.83;;;25.50;99.90;;;;;;2607425;54;20479;-60
2021/08/15 10:52:41;;;;;;;23.40;21.60;;;25.50;99.90;;;;;;2605897;54;20443;-60
2021/08/15 10:55:15;;;;;;;23.13;21.33;;;25.50;99.90;;;;;;2606541;54;20542;-58
2021/08/15 10:58:05;;;;;;;24.10;22.13;;;25.50;99.90;;;;;;2607478;54;20414;-59
2021/08/15 11:00:55;;;;;;;24.67;22.57;;;25.50;99.90;;;;;;2608420;54;20375;-58
2021/08/15 11:03:53;;;;;;;25.03;22.83;;;25.50;99.90;;;;;;2607172;54;20390;-59
2021/08/15 11:06:46;;;;;;;23.97;21.87;;;25.50;99.90;;;;;;2607371;54;20414;-58
2021/08/15 11:09:17;;;;;;;24.03;21.93;;;25.50;99.90;;;;;;2608005;54;20395;-58
2021/08/15 11:12:19;;;;;;;25.00;22.90;;;25.50;99.90;;;;;;2607117;47;20469;-59
2021/08/15 11:15:05;;;;;;;23.17;21.30;;;25.50;99.90;;;;;;2607256;54;21180;-59
2021/08/15 11:17:36;;;;;;;21.70;20.00;;;25.50;99.90;;;;;;2605180;54;20409;-59
2021/08/15 11:20:35;;;;;;;23.83;21.63;;;25.50;99.90;;;;;;2606355;51;20453;-59
2021/08/15 11:23:14;;;;;;;24.47;22.47;;;25.50;99.90;;;;;;2604010;54;20415;-59
2021/08/15 11:25:43;;;;;;;23.60;21.80;;;25.50;99.90;;;;;;2605933;54;20406;-58
2021/08/15 11:28:13;;;;;;;21.90;20.10;;;25.50;99.90;;;;;;2607764;54;20444;-59
2021/08/15 11:30:46;;;;;;;23.33;21.43;;;25.50;99.90;;;;;;2607011;54;20430;-58
2021/08/15 11:33:24;;;;;;;23.17;21.17;;;25.50;99.90;;;;;;2605886;54;20517;-59
2021/08/15 11:35:55;;;;;;;25.30;23.27;;;25.50;99.90;;;;;;2605696;39;20849;-59
2021/08/15 11:38:27;;;;;;;22.80;20.77;;;25.50;99.90;;;;;;2605639;47;20446;-58
2021/08/15 11:40:57;;;;;;;22.90;21.00;;;25.50;99.90;;;;;;2605171;47;20410;-59
2021/08/15 11:43:28;;;;;;;24.27;22.30;;;25.50;99.90;;;;;;2602480;54;20437;-57
2021/08/15 11:46:00;;;;;;;22.33;20.60;;;25.50;99.90;;;;;;2604597;54;21239;-57
2021/08/15 11:48:31;;;;;;;23.10;21.00;;;25.50;99.90;;;;;;2604432;47;20425;-57
2021/08/15 11:51:03;;;;;;;20.73;19.10;;;25.50;99.90;;;;;;2603362;54;20472;-57
2021/08/15 11:53:34;;;;;;;21.30;19.53;;;25.60;99.90;;;;;;2602904;54;20461;-57
2021/08/15 11:56:11;;;;;;;20.43;18.80;;;25.60;99.90;;;;;;2604930;54;20405;-57
2021/08/15 11:58:45;;;;;;;20.53;19.00;;;25.60;99.90;;;;;;2606273;47;20399;-56
2021/08/15 12:01:20;;;;;;;20.30;18.97;;;25.60;99.90;;;;;;2605816;54;21438;-58
2021/08/15 12:03:58;;;;;;;18.50;17.20;;;25.60;99.90;;;;;;2606141;54;20378;-57
2021/08/15 12:06:28;;;;;;;19.83;18.17;;;25.60;99.90;;;;;;2606561;39;20785;-57
2021/08/15 12:08:57;;;;;;;19.20;17.80;;;25.60;99.90;;;;;;2606049;54;20394;-58
2021/08/15 12:11:28;;;;;;;16.97;15.87;;;25.60;99.90;;;;;;2608167;54;20387;-58
2021/08/15 12:14:12;;;;;;;20.17;18.10;;;25.60;99.90;;;;;;2606462;54;20374;-58
2021/08/15 12:16:55;;;;;;;19.53;17.47;;;25.60;99.90;;;;;;2604920;54;20430;-58
2021/08/15 12:19:25;;;;;;;18.60;17.30;;;25.60;99.90;;;;;;2606675;54;20525;-57
2021/08/15 12:21:55;;;;;;;19.70;18.00;;;25.60;99.90;;;;;;2606045;54;20434;-57
2021/08/15 12:24:25;;;;;;;20.67;19.13;;;25.60;99.90;;;;;;2603868;39;21157;-57
2021/08/15 12:27:00;;;;;;;18.13;16.83;;;25.60;99.90;;;;;;2605606;54;20918;-58
2021/08/15 12:29:33;;;;;;;19.10;17.60;;;25.60;99.90;;;;;;2606515;54;20526;-58
2021/08/15 12:32:17;;;;;;;18.57;17.27;;;25.60;99.90;;;;;;2605717;54;20442;-58
2021/08/15 12:34:47;;;;;;;18.57;16.97;;;25.60;99.90;;;;;;2603751;39;20773;-57
2021/08/15 12:37:22;;;;;;;19.17;17.60;;;25.60;99.90;;;;;;2604427;54;20861;-57
2021/08/15 12:40:03;;;;;;;17.77;16.37;;;25.60;99.90;;;;;;2607655;54;21223;-57
2021/08/15 12:42:32;;;;;;;18.20;17.00;;;25.60;99.90;;;;;;2606079;54;20402;-57
2021/08/15 12:45:03;;;;;;;19.20;17.60;;;25.60;99.90;;;;;;2606402;39;21280;-58
2021/08/15 12:47:36;;;;;;;17.73;16.53;;;25.60;99.90;;;;;;2605707;54;20419;-58
2021/08/15 12:50:12;;;;;;;17.93;16.70;;;25.70;99.90;;;;;;2606814;54;20506;-59